White Pine, Tennessee
Current Conditions -  °F | °C
As of 1:15 PM on Wednesday 28 Jan 2015 (Local Time) from KMOR Reporting Station
Clear Clear  
Wind Chill: 32°   Ceiling: Unl
Heat Index: 36°   Visibility: 10mi
Dew Point: 16°   Wind: 5mph
Humidity: 44%   Direction: NA
Pressure: 30.29"   Gusts: NA
Location:  36.11°N, 83.29°W
Report Text: KMOR 281815Z AUTO VRB04KT 10SM CLR 02/M09 A3029 RMK
Loading
Personal Weather Stations






























Interactive Weather Map New forecast layout! Learn more

10-Day Weather Forecast

Advertisements
Track Severe Weather on mobile